createdAt,value
2022-12-08T15:09:30.528Z,95945.63
2022-12-08T15:12:12.748Z,95940.47
2022-12-08T15:14:55.313Z,95929.25
2022-12-08T15:17:47.841Z,95931.22
2022-12-08T15:20:27.580Z,95930.44
2022-12-08T15:23:04.523Z,95914.75
2022-12-08T15:25:37.688Z,95919.91
2022-12-08T15:28:13.051Z,95919.59
2022-12-08T15:30:45.030Z,95923.81
2022-12-08T15:33:16.710Z,95921.53
2022-12-08T15:35:50.204Z,95913.66
2022-12-08T15:38:23.892Z,95914.59
2022-12-08T15:40:56.471Z,95916.59
2022-12-08T15:43:28.465Z,95917.75
2022-12-08T15:46:00.597Z,95916.41
2022-12-08T15:48:32.549Z,95906.50
2022-12-08T15:51:04.255Z,95923.59
2022-12-08T15:53:35.768Z,95921.31
2022-12-08T15:59:00.325Z,95906.25
2022-12-08T16:01:31.867Z,95911.44
2022-12-08T16:07:20.177Z,95904.66
2022-12-08T16:09:46.940Z,95906.41
2022-12-08T16:12:25.079Z,95911.09
2022-12-08T16:17:48.411Z,95909.50
2022-12-08T16:20:24.263Z,95917.63
2022-12-08T16:23:19.433Z,95924.25
2022-12-08T16:26:20.375Z,95914.94
2022-12-08T16:28:53.808Z,95908.44
2022-12-08T16:31:25.827Z,95908.13
2022-12-08T16:33:57.521Z,95900.41
2022-12-08T16:36:29.049Z,95907.72
2022-12-08T16:39:00.572Z,95907.94
2022-12-08T16:41:32.143Z,95911.72
2022-12-08T16:44:06.116Z,95899.34
2022-12-08T16:46:37.644Z,95899.13
2022-12-08T16:49:09.774Z,95899.47
2022-12-08T16:51:42.451Z,95900.19
2022-12-08T16:54:13.978Z,95893.31
2022-12-08T16:56:45.594Z,95898.47
2022-12-08T16:59:17.116Z,95905.47
2022-12-08T17:01:48.742Z,95904.13
2022-12-08T17:04:31.346Z,95899.81
2022-12-08T17:07:09.787Z,95904.13
2022-12-08T17:09:41.325Z,95901.69
2022-12-08T17:12:12.855Z,95902.44
2022-12-08T17:14:44.462Z,95902.84
2022-12-08T17:17:15.992Z,95906.50
2022-12-08T17:19:47.532Z,95898.22
2022-12-08T17:22:19.155Z,95893.09
2022-12-08T17:24:50.695Z,95891.94
2022-12-08T17:27:43.607Z,95890.53
2022-12-08T17:30:15.349Z,95884.97
2022-12-08T17:32:47.026Z,95888.72
2022-12-08T17:35:18.671Z,95892.38
2022-12-08T17:37:50.273Z,95896.09
2022-12-08T17:40:22.885Z,95899.25
2022-12-08T17:46:28.501Z,95909.88
2022-12-08T17:49:00.057Z,95903.97
2022-12-08T17:51:31.560Z,95892.59
2022-12-08T17:54:04.938Z,95883.25
2022-12-08T17:56:36.484Z,95876.25
2022-12-08T17:59:08.014Z,95883.53
2022-12-08T18:01:40.569Z,95880.06
2022-12-08T18:04:13.155Z,95879.34
2022-12-08T18:06:44.646Z,95880.34
2022-12-08T18:09:16.500Z,95879.22
2022-12-08T18:11:48.097Z,95878.84
2022-12-08T18:14:19.762Z,95870.09
2022-12-08T18:16:51.394Z,95869.19
2022-12-08T18:19:23.092Z,95862.50
2022-12-08T18:21:54.722Z,95860.50
2022-12-08T18:24:26.313Z,95859.56
2022-12-08T18:26:57.979Z,95861.56
2022-12-08T18:29:29.634Z,95862.00
2022-12-08T18:32:01.266Z,95860.13
2022-12-08T18:34:32.861Z,95859.63
2022-12-08T18:37:04.430Z,95849.94
2022-12-08T18:39:36.417Z,95855.56
2022-12-08T18:42:08.411Z,95849.16
2022-12-08T18:44:40.403Z,95832.66
2022-12-08T18:47:11.932Z,95834.13
2022-12-08T18:49:44.103Z,95836.38
2022-12-08T18:52:19.017Z,95837.28
2022-12-08T18:55:06.324Z,95833.84
2022-12-08T18:57:40.519Z,95845.31
2022-12-08T19:00:17.732Z,95843.63
2022-12-08T19:02:49.397Z,95840.72
2022-12-08T19:05:21.187Z,95837.34
2022-12-08T19:07:52.713Z,95837.78
2022-12-08T19:10:24.941Z,95830.78
2022-12-08T19:12:56.469Z,95832.38
2022-12-08T19:15:28.102Z,95836.38
2022-12-08T19:18:00.539Z,95835.19
2022-12-08T19:20:32.051Z,95836.81
2022-12-08T19:23:03.594Z,95838.56
2022-12-08T19:25:35.111Z,95845.41
2022-12-08T19:28:07.569Z,95837.31
2022-12-08T19:30:39.195Z,95841.66
2022-12-08T19:33:10.857Z,95832.88
2022-12-08T19:35:46.209Z,95838.72
2022-12-08T19:38:20.664Z,95836.31
2022-12-08T19:40:52.234Z,95839.09
2022-12-08T19:43:23.741Z,95838.44
2022-12-08T19:45:55.586Z,95836.72
2022-12-08T19:48:27.323Z,95835.41
2022-12-08T19:50:59.099Z,95831.91
2022-12-08T19:53:30.683Z,95835.84
2022-12-08T19:56:02.567Z,95832.69
2022-12-08T19:58:34.777Z,95832.00
2022-12-08T20:01:07.282Z,95827.47
2022-12-08T20:03:38.914Z,95820.94
2022-12-08T20:06:18.178Z,95818.78
2022-12-08T20:08:50.986Z,95815.03
2022-12-08T20:11:22.938Z,95816.41
2022-12-08T20:13:54.471Z,95818.19
2022-12-08T20:16:26.148Z,95813.78
2022-12-08T20:18:57.830Z,95817.41
2022-12-08T20:21:30.035Z,95812.31
2022-12-08T20:24:01.591Z,95805.56
2022-12-08T20:26:33.328Z,95795.97
2022-12-08T20:29:05.019Z,95799.94
2022-12-08T20:31:36.613Z,95806.84
2022-12-08T20:34:17.565Z,95808.16
2022-12-08T20:36:49.284Z,95803.94
2022-12-08T20:39:20.945Z,95788.03
2022-12-08T20:41:52.926Z,95792.28
2022-12-08T20:44:24.506Z,95797.66
2022-12-08T20:46:57.176Z,95799.41
2022-12-08T20:49:34.363Z,95792.09
2022-12-08T20:52:06.713Z,95787.44
2022-12-08T20:54:38.614Z,95793.38
2022-12-08T20:57:10.815Z,95798.88
2022-12-08T20:59:43.037Z,95796.53
2022-12-08T21:02:17.504Z,95797.41
2022-12-08T21:04:49.679Z,95801.44
2022-12-08T21:07:21.372Z,95795.81
2022-12-08T21:09:53.127Z,95804.41
2022-12-08T21:12:24.800Z,95822.28
2022-12-08T21:14:56.505Z,95817.28
2022-12-08T21:17:28.218Z,95812.38
2022-12-08T21:19:59.900Z,95816.72
2022-12-08T21:22:31.526Z,95823.56
2022-12-08T21:25:03.304Z,95828.28
2022-12-08T21:27:37.228Z,95825.75
2022-12-08T21:30:10.702Z,95822.84
2022-12-08T21:32:42.991Z,95821.50
2022-12-08T21:35:14.892Z,95822.19
2022-12-08T21:37:46.829Z,95817.69
2022-12-08T21:40:18.605Z,95830.63
2022-12-08T21:42:51.128Z,95831.94
2022-12-08T21:45:22.682Z,95821.13
2022-12-08T21:47:54.526Z,95807.75
2022-12-08T21:50:26.371Z,95803.84
2022-12-08T21:52:58.036Z,95813.63
2022-12-08T21:55:29.650Z,95811.88
2022-12-08T21:58:04.042Z,95812.06
2022-12-08T22:00:35.801Z,95815.78
2022-12-08T22:03:13.695Z,95800.91
2022-12-08T22:05:45.770Z,95809.31
2022-12-08T22:08:17.361Z,95805.34
2022-12-08T22:10:49.053Z,95795.66
2022-12-08T22:13:20.579Z,95799.03
2022-12-08T22:16:01.544Z,95795.06
2022-12-08T22:18:34.761Z,95791.53
2022-12-08T22:21:15.890Z,95794.16
2022-12-08T22:23:47.510Z,95790.88
2022-12-08T22:26:19.303Z,95792.50
2022-12-08T22:28:50.846Z,95797.94
2022-12-08T22:31:22.734Z,95795.78
2022-12-08T22:33:54.567Z,95788.50
2022-12-08T22:36:27.461Z,95796.44
2022-12-08T22:38:59.001Z,95787.69
2022-12-08T22:41:30.599Z,95793.38
2022-12-08T22:44:06.085Z,95797.44
2022-12-08T22:46:37.712Z,95790.31
2022-12-08T22:49:09.458Z,95788.56
2022-12-08T22:51:41.205Z,95795.78
2022-12-08T22:54:12.860Z,95796.91
2022-12-08T22:56:44.700Z,95788.41
2022-12-08T22:59:16.338Z,95784.94
2022-12-08T23:01:47.927Z,95776.47
2022-12-08T23:04:19.593Z,95776.34
2022-12-08T23:06:51.270Z,95779.91
2022-12-08T23:09:23.037Z,95772.44
2022-12-08T23:11:55.487Z,95773.22
2022-12-08T23:14:27.294Z,95778.16
2022-12-08T23:16:59.126Z,95769.75
2022-12-08T23:19:30.748Z,95760.81
2022-12-08T23:22:02.341Z,95767.75
2022-12-08T23:24:33.962Z,95771.66
2022-12-08T23:27:05.618Z,95771.25
2022-12-08T23:29:37.538Z,95768.53
2022-12-08T23:32:09.631Z,95760.91
2022-12-08T23:34:41.342Z,95759.13
2022-12-08T23:37:13.042Z,95760.97
2022-12-08T23:39:44.677Z,95760.06
2022-12-08T23:42:16.184Z,95762.00
2022-12-08T23:44:47.733Z,95748.31
2022-12-08T23:47:19.336Z,95747.56
2022-12-08T23:49:51.122Z,95737.97
2022-12-08T23:52:22.696Z,95750.59
2022-12-08T23:54:54.604Z,95731.78
2022-12-08T23:57:26.360Z,95731.88
2022-12-08T23:59:58.040Z,95728.50
